Time;durP1;ratioP1;P1;durP2;ratioP2;P2;SDS_P1;SDS_P2;PMS_P1;PMS_P2;Temp;Humidity;BMP_temperature;BMP_pressure;BME280_temperature;BME280_humidity;BME280_pressure;Samples;Min_cycle;Max_cycle;Signal;HPM_P1;HPM_P2
2023/08/07 00:00:26;;;;;;;;;;;;;;;;;;2211930;59;2519;-21
2023/08/07 00:02:56;;;;;;;;;;;;;;;;;;2211495;66;1634;-21
2023/08/07 00:05:26;;;;;;;;;;;;;;;;;;2211186;59;2731;-21
2023/08/07 00:07:56;;;;;;;;;;;;;;;;;;2210429;59;2652;-21
2023/08/07 00:10:27;;;;;;;;;;;;;;;;;;2211824;66;1762;-21
2023/08/07 00:12:57;;;;;;;;;;;;;;;;;;2212687;58;2397;-21
2023/08/07 00:15:27;;;;;;;;;;;;;;;;;;2212050;66;2831;-21
2023/08/07 00:17:57;;;;;;;;;;;;;;;;;;2212222;66;1996;-21
2023/08/07 00:20:28;;;;;;;;;;;;;;;;;;2212323;66;1881;-21
2023/08/07 00:22:58;;;;;;;;;;;;;;;;;;2212216;66;1995;-21
2023/08/07 00:25:28;;;;;;;;;;;;;;;;;;2212404;66;1750;-21
2023/08/07 00:27:58;;;;;;;;;;;;;;;;;;2212508;66;1804;-21
2023/08/07 00:30:28;;;;;;;;;;;;;;;;;;2212400;59;2145;-21
2023/08/07 00:32:59;;;;;;;;;;;;;;;;;;2211850;59;2057;-21
2023/08/07 00:35:29;;;;;;;;;;;;;;;;;;2211690;66;1816;-21
2023/08/07 00:37:59;;;;;;;;;;;;;;;;;;2211906;66;2257;-21
2023/08/07 00:40:36;;;;;;;;;;;;;;;;;;2211695;66;1939;-21
2023/08/07 00:43:06;;;;;;;;;;;;;;;;;;2211247;66;2370;-21
2023/08/07 00:45:41;;;;;;;;;;;;;;;;;;2211251;58;1892;-21
2023/08/07 00:48:12;;;;;;;;;;;;;;;;;;2211827;66;1740;-21
2023/08/07 00:50:44;;;;;;;;;;;;;;;;;;2211971;59;1771;-21
2023/08/07 00:53:15;;;;;;;;;;;;;;;;;;2211593;59;1668;-21
2023/08/07 00:55:46;;;;;;;;;;;;;;;;;;2211486;59;1259;-21
2023/08/07 00:58:16;;;;;;;;;;;;;;;;;;2211902;66;2040;-21
2023/08/07 01:00:46;;;;;;;;;;;;;;;;;;2212191;59;1904;-21
2023/08/07 01:03:16;;;;;;;;;;;;;;;;;;2210495;66;1341;-21
2023/08/07 01:05:46;;;;;;;;;;;;;;;;;;2211449;59;4460;-21
2023/08/07 01:08:17;;;;;;;;;;;;;;;;;;2209610;66;2625;-21
2023/08/07 01:10:47;;;;;;;;;;;;;;;;;;2211580;66;1839;-21
2023/08/07 01:13:27;;;;;;;;;;;;;;;;;;2211157;58;1795;-21
2023/08/07 01:16:03;;;;;;;;;;;;;;;;;;2211307;66;1940;-21
2023/08/07 01:18:34;;;;;;;;;;;;;;;;;;2211609;66;1935;-21
2023/08/07 01:21:04;;;;;;;;;;;;;;;;;;2211455;66;2450;-21
2023/08/07 01:23:34;;;;;;;;;;;;;;;;;;2211724;59;3598;-21
2023/08/07 01:26:05;;;;;;;;;;;;;;;;;;2211814;66;2483;-21
2023/08/07 01:28:38;;;;;;;;;;;;;;;;;;2212191;59;2274;-21
2023/08/07 01:31:12;;;;;;;;;;;;;;;;;;2211747;59;1847;-21
2023/08/07 01:33:53;;;;;;;;;;;;;;;;;;2211343;59;1527;-21
2023/08/07 01:36:27;;;;;;;;;;;;;;;;;;2212078;66;1300;-21
2023/08/07 01:38:58;;;;;;;;;;;;;;;;;;2211103;66;1940;-21
2023/08/07 01:41:29;;;;;;;;;;;;;;;;;;2211777;66;1883;-21
2023/08/07 01:43:59;;;;;;;;;;;;;;;;;;2210564;66;1629;-21
2023/08/07 01:46:29;;;;;;;;;;;;;;;;;;2211143;58;2576;-21
2023/08/07 01:48:59;;;;;;;;;;;;;;;;;;2211353;66;1637;-21
2023/08/07 01:51:29;;;;;;;;;;;;;;;;;;2211416;59;2027;-21
2023/08/07 01:54:00;;;;;;;;;;;;;;;;;;2211445;59;1427;-21
2023/08/07 01:56:30;;;;;;;;;;;;;;;;;;2212264;59;1190;-21
2023/08/07 01:59:00;;;;;;;;;;;;;;;;;;2211646;66;1941;-21
2023/08/07 02:01:30;;;;;;;;;;;;;;;;;;2211502;58;1332;-21
2023/08/07 02:04:01;;;;;;;;;;;;;;;;;;2210003;66;1844;-21
2023/08/07 02:06:31;;;;;;;;;;;;;;;;;;2211124;59;1665;-21
2023/08/07 02:09:01;;;;;;;;;;;;;;;;;;2210272;66;2273;-21
2023/08/07 02:11:31;;;;;;;;;;;;;;;;;;2211403;58;1988;-21
2023/08/07 02:14:02;;;;;;;;;;;;;;;;;;2212934;66;2133;-21
2023/08/07 02:16:35;;;;;;;;;;;;;;;;;;2212671;66;1685;-21
2023/08/07 02:19:05;;;;;;;;;;;;;;;;;;2211733;66;2439;-21
2023/08/07 02:21:36;;;;;;;;;;;;;;;;;;2211219;66;2491;-21
2023/08/07 02:24:06;;;;;;;;;;;;;;;;;;2210361;59;1771;-21
2023/08/07 02:26:36;;;;;;;;;;;;;;;;;;2211328;66;1766;-21
2023/08/07 02:29:08;;;;;;;;;;;;;;;;;;2215427;53;1940;-24
2023/08/07 02:31:42;;;;;;;;;;;;;;;;;;2194271;59;1740;-24
2023/08/07 02:34:12;;;;;;;;;;;;;;;;;;2195908;66;1215;-24
2023/08/07 02:36:42;;;;;;;;;;;;;;;;;;2196723;59;2152;-25
2023/08/07 02:39:13;;;;;;;;;;;;;;;;;;2196494;66;1945;-24
2023/08/07 02:41:43;;;;;;;;;;;;;;;;;;2195691;66;1760;-24
2023/08/07 02:44:13;;;;;;;;;;;;;;;;;;2195633;66;1929;-24
2023/08/07 02:46:44;;;;;;;;;;;;;;;;;;2195731;59;1781;-25
2023/08/07 02:49:14;;;;;;;;;;;;;;;;;;2195472;59;1985;-24
2023/08/07 02:51:44;;;;;;;;;;;;;;;;;;2195835;59;2343;-24
2023/08/07 02:54:14;;;;;;;;;;;;;;;;;;2194831;59;1805;-24
2023/08/07 02:56:45;;;;;;;;;;;;;;;;;;2195725;59;2015;-24
2023/08/07 02:59:15;;;;;;;;;;;;;;;;;;2195100;66;2391;-24
2023/08/07 03:01:45;;;;;;;;;;;;;;;;;;2195953;59;2006;-24
2023/08/07 03:04:18;;;;;;;;;;;;;;;;;;2195957;58;1754;-24
2023/08/07 03:06:49;;;;;;;;;;;;;;;;;;2196533;66;2805;-25
2023/08/07 03:09:19;;;;;;;;;;;;;;;;;;2194628;59;2725;-24
2023/08/07 03:11:49;;;;;;;;;;;;;;;;;;2195377;59;2782;-24
2023/08/07 03:14:19;;;;;;;;;;;;;;;;;;2196392;59;2152;-24
2023/08/07 03:16:49;;;;;;;;;;;;;;;;;;2195721;59;1996;-24
2023/08/07 03:19:21;;;;;;;;;;;;;;;;;;2195416;59;1728;-24
2023/08/07 03:21:51;;;;;;;;;;;;;;;;;;2195243;66;1741;-24
2023/08/07 03:24:21;;;;;;;;;;;;;;;;;;2195643;66;1961;-24
2023/08/07 03:26:52;;;;;;;;;;;;;;;;;;2195361;60;1987;-24
2023/08/07 03:29:22;;;;;;;;;;;;;;;;;;2196463;59;2748;-24
2023/08/07 03:31:52;;;;;;;;;;;;;;;;;;2195366;59;1940;-24
2023/08/07 03:34:22;;;;;;;;;;;;;;;;;;2194769;66;1808;-24
2023/08/07 03:36:52;;;;;;;;;;;;;;;;;;2195491;66;1999;-24
2023/08/07 03:39:23;;;;;;;;;;;;;;;;;;2195823;66;2766;-24
2023/08/07 03:41:53;;;;;;;;;;;;;;;;;;2195491;66;2242;-24
2023/08/07 03:44:26;;;;;;;;;;;;;;;;;;2196168;59;2885;-24
2023/08/07 03:46:57;;;;;;;;;;;;;;;;;;2194997;66;1776;-24
2023/08/07 03:49:27;;;;;;;;;;;;;;;;;;2198773;59;1782;-24
2023/08/07 03:51:59;;;;;;;;;;;;;;;;;;2196641;58;2321;-24
2023/08/07 03:54:29;;;;;;;;;;;;;;;;;;2197725;59;1733;-24
2023/08/07 03:56:59;;;;;;;;;;;;;;;;;;2196177;59;1999;-24
2023/08/07 03:59:29;;;;;;;;;;;;;;;;;;2196525;66;1441;-24
2023/08/07 04:01:59;;;;;;;;;;;;;;;;;;2196782;58;3256;-24
2023/08/07 04:04:30;;;;;;;;;;;;;;;;;;2196165;59;1823;-24
2023/08/07 04:07:00;;;;;;;;;;;;;;;;;;2196128;66;2530;-24
2023/08/07 04:09:31;;;;;;;;;;;;;;;;;;2196249;60;2405;-24
2023/08/07 04:12:01;;;;;;;;;;;;;;;;;;2195667;59;2157;-24
2023/08/07 04:14:32;;;;;;;;;;;;;;;;;;2196062;66;2456;-24
2023/08/07 04:17:02;;;;;;;;;;;;;;;;;;2195379;66;2461;-24
2023/08/07 04:19:33;;;;;;;;;;;;;;;;;;2196221;66;2060;-24
2023/08/07 04:22:03;;;;;;;;;;;;;;;;;;2196360;66;2474;-24
2023/08/07 04:24:33;;;;;;;;;;;;;;;;;;2196215;66;2690;-24
2023/08/07 04:27:04;;;;;;;;;;;;;;;;;;2194926;66;2656;-24
2023/08/07 04:29:34;;;;;;;;;;;;;;;;;;2195792;59;1757;-24
2023/08/07 04:32:05;;;;;;;;;;;;;;;;;;2196293;59;3169;-24
2023/08/07 04:34:35;;;;;;;;;;;;;;;;;;2196084;66;1981;-24
2023/08/07 04:37:06;;;;;;;;;;;;;;;;;;2194553;66;2817;-24
2023/08/07 04:39:36;;;;;;;;;;;;;;;;;;2196084;66;2357;-24
2023/08/07 04:42:06;;;;;;;;;;;;;;;;;;2196295;66;2086;-24
2023/08/07 04:44:37;;;;;;;;;;;;;;;;;;2198445;59;1762;-24
2023/08/07 04:47:07;;;;;;;;;;;;;;;;;;2194882;66;1644;-24
2023/08/07 04:49:37;;;;;;;;;;;;;;;;;;2199499;59;1910;-24
2023/08/07 04:52:07;;;;;;;;;;;;;;;;;;2196126;58;1987;-24
2023/08/07 04:54:38;;;;;;;;;;;;;;;;;;2195281;59;1952;-24
2023/08/07 04:57:08;;;;;;;;;;;;;;;;;;2195986;59;1963;-24
2023/08/07 04:59:38;;;;;;;;;;;;;;;;;;2196059;66;1972;-24
2023/08/07 05:02:08;;;;;;;;;;;;;;;;;;2196016;58;2452;-24
2023/08/07 05:04:38;;;;;;;;;;;;;;;;;;2196158;66;2079;-24
2023/08/07 05:07:09;;;;;;;;;;;;;;;;;;2194998;66;2377;-24
2023/08/07 05:09:39;;;;;;;;;;;;;;;;;;2196327;66;2462;-25
2023/08/07 05:12:10;;;;;;;;;;;;;;;;;;2194206;59;2434;-24
2023/08/07 05:14:40;;;;;;;;;;;;;;;;;;2196081;66;2295;-25
2023/08/07 05:17:10;;;;;;;;;;;;;;;;;;2194874;66;2372;-25
2023/08/07 05:19:40;;;;;;;;;;;;;;;;;;2198332;66;1896;-24
2023/08/07 05:22:11;;;;;;;;;;;;;;;;;;2195125;66;1885;-25
2023/08/07 05:24:41;;;;;;;;;;;;;;;;;;2195988;59;1687;-24
2023/08/07 05:27:11;;;;;;;;;;;;;;;;;;2195566;66;2554;-24
2023/08/07 05:29:45;;;;;;;;;;;;;;;;;;2196244;59;1909;-25
2023/08/07 05:32:15;;;;;;;;;;;;;;;;;;2195944;59;2587;-25
2023/08/07 05:34:45;;;;;;;;;;;;;;;;;;2196446;59;1969;-24
2023/08/07 05:37:15;;;;;;;;;;;;;;;;;;2194791;66;2403;-25
2023/08/07 05:39:45;;;;;;;;;;;;;;;;;;2196064;66;1588;-25
2023/08/07 05:42:16;;;;;;;;;;;;;;;;;;2195286;67;1582;-25
2023/08/07 05:44:46;;;;;;;;;;;;;;;;;;2192721;59;1399;-25
2023/08/07 05:47:19;;;;;;;;;;;;;;;;;;2195466;66;1313;-24
2023/08/07 05:49:49;;;;;;;;;;;;;;;;;;2195687;59;1303;-25
2023/08/07 05:52:20;;;;;;;;;;;;;;;;;;2196043;58;1407;-25
2023/08/07 05:54:50;;;;;;;;;;;;;;;;;;2196206;59;1287;-25
2023/08/07 05:57:20;;;;;;;;;;;;;;;;;;2196129;66;2154;-25
2023/08/07 05:59:51;;;;;;;;;;;;;;;;;;2197494;58;1443;-25
2023/08/07 06:02:21;;;;;;;;;;;;;;;;;;2195372;60;1692;-25
2023/08/07 06:04:52;;;;;;;;;;;;;;;;;;2195514;58;1399;-25
2023/08/07 06:07:22;;;;;;;;;;;;;;;;;;2195188;66;1382;-25
2023/08/07 06:09:53;;;;;;;;;;;;;;;;;;2195804;66;1753;-25
2023/08/07 06:12:23;;;;;;;;;;;;;;;;;;2194152;59;2260;-25
2023/08/07 06:14:53;;;;;;;;;;;;;;;;;;2195655;66;2448;-25
2023/08/07 06:17:27;;;;;;;;;;;;;;;;;;2194963;66;2003;-25
2023/08/07 06:19:57;;;;;;;;;;;;;;;;;;2195418;66;2274;-25
2023/08/07 06:22:27;;;;;;;;;;;;;;;;;;2195377;66;1732;-25
2023/08/07 06:24:57;;;;;;;;;;;;;;;;;;2195786;59;1845;-25
2023/08/07 06:27:27;;;;;;;;;;;;;;;;;;2195800;59;3562;-25
2023/08/07 06:29:58;;;;;;;;;;;;;;;;;;2195947;66;2297;-25
2023/08/07 06:32:28;;;;;;;;;;;;;;;;;;2195756;59;1967;-25
2023/08/07 06:34:58;;;;;;;;;;;;;;;;;;2194430;66;1777;-25
2023/08/07 06:37:28;;;;;;;;;;;;;;;;;;2195940;66;2064;-25
2023/08/07 06:39:59;;;;;;;;;;;;;;;;;;2194449;66;3227;-25
2023/08/07 06:42:29;;;;;;;;;;;;;;;;;;2195068;66;1746;-25
2023/08/07 06:44:59;;;;;;;;;;;;;;;;;;2194689;59;2016;-25
2023/08/07 06:47:30;;;;;;;;;;;;;;;;;;2195699;67;1977;-25
2023/08/07 06:50:00;;;;;;;;;;;;;;;;;;2194927;59;1793;-25
2023/08/07 06:52:30;;;;;;;;;;;;;;;;;;2196102;58;1661;-25
2023/08/07 06:55:04;;;;;;;;;;;;;;;;;;2195338;59;2273;-25
2023/08/07 06:57:34;;;;;;;;;;;;;;;;;;2194857;59;1940;-25
2023/08/07 07:00:05;;;;;;;;;;;;;;;;;;2196145;58;2138;-25
2023/08/07 07:02:35;;;;;;;;;;;;;;;;;;2194853;66;1364;-25
2023/08/07 07:05:05;;;;;;;;;;;;;;;;;;2194057;58;3006;-25
2023/08/07 07:07:36;;;;;;;;;;;;;;;;;;2193552;67;1942;-25
2023/08/07 07:10:06;;;;;;;;;;;;;;;;;;2195445;67;1619;-25
2023/08/07 07:12:37;;;;;;;;;;;;;;;;;;2195536;59;2109;-25
2023/08/07 07:15:07;;;;;;;;;;;;;;;;;;2194711;66;2396;-25
2023/08/07 07:17:37;;;;;;;;;;;;;;;;;;2194551;66;1945;-25
2023/08/07 07:20:11;;;;;;;;;;;;;;;;;;2196349;66;2712;-25
2023/08/07 07:22:41;;;;;;;;;;;;;;;;;;2196070;67;2523;-25
2023/08/07 07:25:11;;;;;;;;;;;;;;;;;;2195441;66;1856;-25
2023/08/07 07:27:41;;;;;;;;;;;;;;;;;;2195899;59;1697;-25
2023/08/07 07:30:12;;;;;;;;;;;;;;;;;;2195023;59;1909;-25
2023/08/07 07:32:42;;;;;;;;;;;;;;;;;;2196266;59;1834;-25
2023/08/07 07:35:12;;;;;;;;;;;;;;;;;;2195694;67;1770;-25
2023/08/07 07:37:42;;;;;;;;;;;;;;;;;;2194965;66;2274;-25
2023/08/07 07:40:13;;;;;;;;;;;;;;;;;;2195458;66;1991;-25
2023/08/07 07:42:43;;;;;;;;;;;;;;;;;;2196411;67;3374;-25
2023/08/07 07:45:13;;;;;;;;;;;;;;;;;;2195054;59;3088;-25
2023/08/07 07:47:43;;;;;;;;;;;;;;;;;;2195977;67;1765;-25
2023/08/07 07:50:13;;;;;;;;;;;;;;;;;;2194512;59;1816;-25
2023/08/07 07:52:44;;;;;;;;;;;;;;;;;;2197087;58;2573;-25
2023/08/07 07:55:14;;;;;;;;;;;;;;;;;;2195324;67;1772;-25
2023/08/07 07:57:45;;;;;;;;;;;;;;;;;;2195628;67;2032;-25
2023/08/07 08:00:15;;;;;;;;;;;;;;;;;;2195849;58;1723;-25
2023/08/07 08:02:46;;;;;;;;;;;;;;;;;;2196627;60;2286;-25
2023/08/07 08:05:16;;;;;;;;;;;;;;;;;;2194586;66;2026;-25
2023/08/07 08:07:46;;;;;;;;;;;;;;;;;;2195644;66;2194;-25
2023/08/07 08:10:19;;;;;;;;;;;;;;;;;;2195351;66;2313;-25
2023/08/07 08:12:50;;;;;;;;;;;;;;;;;;2195541;59;2535;-23
2023/08/07 08:15:21;;;;;;;;;;;;;;;;;;2194607;66;2686;-23
2023/08/07 08:17:51;;;;;;;;;;;;;;;;;;2195890;66;1937;-23
2023/08/07 08:20:21;;;;;;;;;;;;;;;;;;2195883;66;1816;-23
2023/08/07 08:22:51;;;;;;;;;;;;;;;;;;2196058;66;1746;-23
2023/08/07 08:25:22;;;;;;;;;;;;;;;;;;2195462;66;2885;-23
2023/08/07 08:27:52;;;;;;;;;;;;;;;;;;2196355;66;1675;-23
2023/08/07 08:30:22;;;;;;;;;;;;;;;;;;2196242;59;1864;-23
2023/08/07 08:32:52;;;;;;;;;;;;;;;;;;2195196;59;1866;-23
2023/08/07 08:35:23;;;;;;;;;;;;;;;;;;2196522;66;2491;-23
2023/08/07 08:37:53;;;;;;;;;;;;;;;;;;2195784;67;2373;-23
2023/08/07 08:40:24;;;;;;;;;;;;;;;;;;2195599;66;1867;-23
2023/08/07 08:42:57;;;;;;;;;;;;;;;;;;2194968;59;2243;-24
2023/08/07 08:45:30;;;;;;;;;;;;;;;;;;2195503;59;1731;-23
2023/08/07 08:48:01;;;;;;;;;;;;;;;;;;2195554;66;1759;-23
2023/08/07 08:50:33;;;;;;;;;;;;;;;;;;2196102;59;2504;-23
2023/08/07 08:53:03;;;;;;;;;;;;;;;;;;2195845;59;2211;-23
2023/08/07 08:55:35;;;;;;;;;;;;;;;;;;2196591;59;1846;-23
2023/08/07 08:58:06;;;;;;;;;;;;;;;;;;2196466;66;1943;-23
2023/08/07 09:00:36;;;;;;;;;;;;;;;;;;2197609;58;1513;-23
2023/08/07 09:03:07;;;;;;;;;;;;;;;;;;2196481;66;1821;-23
2023/08/07 09:05:38;;;;;;;;;;;;;;;;;;2196329;58;1485;-23
2023/08/07 09:08:09;;;;;;;;;;;;;;;;;;2195653;66;1892;-23
2023/08/07 09:10:39;;;;;;;;;;;;;;;;;;2196304;66;1830;-24
2023/08/07 09:13:13;;;;;;;;;;;;;;;;;;2195320;59;2076;-24
2023/08/07 09:15:50;;;;;;;;;;;;;;;;;;2194858;59;2959;-23
2023/08/07 09:18:20;;;;;;;;;;;;;;;;;;2195284;59;1969;-24
2023/08/07 09:20:51;;;;;;;;;;;;;;;;;;2196548;59;1911;-24
2023/08/07 09:23:21;;;;;;;;;;;;;;;;;;2195826;66;2560;-23
2023/08/07 09:26:08;;;;;;;;;;;;;;;;;;2196032;66;2700;-24
2023/08/07 09:28:38;;;;;;;;;;;;;;;;;;2195393;66;1779;-24
2023/08/07 09:31:13;;;;;;;;;;;;;;;;;;2195529;59;1849;-24
2023/08/07 09:33:46;;;;;;;;;;;;;;;;;;2196213;59;1762;-23
2023/08/07 09:36:17;;;;;;;;;;;;;;;;;;2192871;67;1884;-23
2023/08/07 09:38:51;;;;;;;;;;;;;;;;;;2196139;66;1954;-23
2023/08/07 09:41:21;;;;;;;;;;;;;;;;;;2195166;67;2942;-23
2023/08/07 09:43:51;;;;;;;;;;;;;;;;;;2196448;66;1761;-23
2023/08/07 09:46:22;;;;;;;;;;;;;;;;;;2195285;59;2102;-23
2023/08/07 09:48:57;;;;;;;;;;;;;;;;;;2195787;66;1764;-23
2023/08/07 09:51:27;;;;;;;;;;;;;;;;;;2196422;59;2430;-23
2023/08/07 09:53:57;;;;;;;;;;;;;;;;;;2195695;58;1778;-23
2023/08/07 09:56:28;;;;;;;;;;;;;;;;;;2196151;59;1758;-22
2023/08/07 09:58:58;;;;;;;;;;;;;;;;;;2195328;66;2002;-23
2023/08/07 10:01:29;;;;;;;;;;;;;;;;;;2196706;58;2777;-25
2023/08/07 10:04:00;;;;;;;;;;;;;;;;;;2195622;58;1620;-27
2023/08/07 10:06:30;;;;;;;;;;;;;;;;;;2195135;66;2261;-27
2023/08/07 10:09:03;;;;;;;;;;;;;;;;;;2195847;66;1667;-27
2023/08/07 10:11:34;;;;;;;;;;;;;;;;;;2196519;59;2593;-26
2023/08/07 10:14:05;;;;;;;;;;;;;;;;;;2196012;67;1723;-26
2023/08/07 10:16:39;;;;;;;;;;;;;;;;;;2194755;59;2325;-26
2023/08/07 10:19:09;;;;;;;;;;;;;;;;;;2194787;66;1987;-26
2023/08/07 10:21:40;;;;;;;;;;;;;;;;;;2196273;67;3077;-26
2023/08/07 10:24:12;;;;;;;;;;;;;;;;;;2194761;66;1506;-33
2023/08/07 10:26:43;;;;;;;;;;;;;;;;;;2195225;66;2621;-26
2023/08/07 10:29:16;;;;;;;;;;;;;;;;;;2195879;59;1886;-26
2023/08/07 10:31:47;;;;;;;;;;;;;;;;;;2196223;59;1760;-26
2023/08/07 10:34:17;;;;;;;;;;;;;;;;;;2195599;66;2668;-26
2023/08/07 10:36:48;;;;;;;;;;;;;;;;;;2195614;67;1737;-26
2023/08/07 10:39:18;;;;;;;;;;;;;;;;;;2195560;66;1945;-26
2023/08/07 10:41:53;;;;;;;;;;;;;;;;;;2195573;66;1637;-24
2023/08/07 10:44:24;;;;;;;;;;;;;;;;;;2196119;59;1356;-24
2023/08/07 10:46:55;;;;;;;;;;;;;;;;;;2195223;66;1686;-23
2023/08/07 10:49:34;;;;;;;;;;;;;;;;;;2195110;59;1676;-23
2023/08/07 10:52:07;;;;;;;;;;;;;;;;;;2195689;59;1424;-24
2023/08/07 10:54:50;;;;;;;;;;;;;;;;;;2198773;59;1264;-23
2023/08/07 10:57:21;;;;;;;;;;;;;;;;;;2196336;59;1991;-23
2023/08/07 11:00:04;;;;;;;;;;;;;;;;;;2196551;59;1573;-23
2023/08/07 11:02:36;;;;;;;;;;;;;;;;;;2196437;66;1948;-24
2023/08/07 11:05:06;;;;;;;;;;;;;;;;;;2196875;58;1959;-24
2023/08/07 11:07:40;;;;;;;;;;;;;;;;;;2195485;67;1658;-24
2023/08/07 11:10:12;;;;;;;;;;;;;;;;;;2195095;66;1597;-24
2023/08/07 11:12:43;;;;;;;;;;;;;;;;;;2195608;67;1642;-24
2023/08/07 11:15:14;;;;;;;;;;;;;;;;;;2195101;67;1673;-24
2023/08/07 11:17:46;;;;;;;;;;;;;;;;;;2194290;60;2227;-24
2023/08/07 11:20:16;;;;;;;;;;;;;;;;;;2195211;66;1696;-24
2023/08/07 11:22:47;;;;;;;;;;;;;;;;;;2195483;67;1816;-24
2023/08/07 11:25:18;;;;;;;;;;;;;;;;;;2195101;67;1839;-24
2023/08/07 11:27:48;;;;;;;;;;;;;;;;;;2195266;59;1721;-24
2023/08/07 11:30:18;;;;;;;;;;;;;;;;;;2194715;59;2517;-24
2023/08/07 11:32:48;;;;;;;;;;;;;;;;;;2195252;59;1977;-24
2023/08/07 11:35:19;;;;;;;;;;;;;;;;;;2195482;66;3078;-24
2023/08/07 11:37:50;;;;;;;;;;;;;;;;;;2195764;67;2443;-24
2023/08/07 11:40:20;;;;;;;;;;;;;;;;;;2194995;67;2798;-24
2023/08/07 11:42:51;;;;;;;;;;;;;;;;;;2196703;67;1755;-24
2023/08/07 11:45:21;;;;;;;;;;;;;;;;;;2196297;59;2437;-24
2023/08/07 11:47:52;;;;;;;;;;;;;;;;;;2197768;66;2087;-23
2023/08/07 11:50:22;;;;;;;;;;;;;;;;;;2196199;59;2235;-24
2023/08/07 11:52:52;;;;;;;;;;;;;;;;;;2196244;58;2305;-23
2023/08/07 11:55:23;;;;;;;;;;;;;;;;;;2196196;59;1836;-24
2023/08/07 11:57:53;;;;;;;;;;;;;;;;;;2196954;66;2451;-23
2023/08/07 12:00:28;;;;;;;;;;;;;;;;;;2197003;58;1961;-23
2023/08/07 12:02:59;;;;;;;;;;;;;;;;;;2196697;66;1725;-23
2023/08/07 12:05:37;;;;;;;;;;;;;;;;;;2196958;58;2473;-23
2023/08/07 12:08:07;;;;;;;;;;;;;;;;;;2196643;66;1790;-23
2023/08/07 12:10:38;;;;;;;;;;;;;;;;;;2196180;66;1974;-23
2023/08/07 12:13:08;;;;;;;;;;;;;;;;;;2196347;66;2379;-23
2023/08/07 12:15:39;;;;;;;;;;;;;;;;;;2196362;66;2706;-23
2023/08/07 12:18:09;;;;;;;;;;;;;;;;;;2195072;59;2486;-23
2023/08/07 12:20:40;;;;;;;;;;;;;;;;;;2195861;66;2657;-23
2023/08/07 12:23:13;;;;;;;;;;;;;;;;;;2195975;66;1948;-23
2023/08/07 12:25:46;;;;;;;;;;;;;;;;;;2196594;66;2593;-23
2023/08/07 12:28:17;;;;;;;;;;;;;;;;;;2195561;66;1747;-23
2023/08/07 12:30:47;;;;;;;;;;;;;;;;;;2195816;59;1880;-23
2023/08/07 12:33:18;;;;;;;;;;;;;;;;;;2195689;59;1978;-23
2023/08/07 12:35:48;;;;;;;;;;;;;;;;;;2196717;66;2827;-23
2023/08/07 12:38:19;;;;;;;;;;;;;;;;;;2195524;66;2551;-23
2023/08/07 12:40:49;;;;;;;;;;;;;;;;;;2197134;66;1938;-23
2023/08/07 12:43:22;;;;;;;;;;;;;;;;;;2196414;66;2048;-23
2023/08/07 12:45:53;;;;;;;;;;;;;;;;;;2196425;59;1872;-23
2023/08/07 12:48:23;;;;;;;;;;;;;;;;;;2196257;66;1745;-23
2023/08/07 12:50:53;;;;;;;;;;;;;;;;;;2196403;59;2277;-23
2023/08/07 12:53:23;;;;;;;;;;;;;;;;;;2196983;59;1828;-23
2023/08/07 12:55:54;;;;;;;;;;;;;;;;;;2196406;59;1994;-23
2023/08/07 12:58:27;;;;;;;;;;;;;;;;;;2195973;66;2401;-22
2023/08/07 13:00:57;;;;;;;;;;;;;;;;;;2196888;58;1819;-22
2023/08/07 13:03:28;;;;;;;;;;;;;;;;;;2195486;66;2122;-23
2023/08/07 13:05:58;;;;;;;;;;;;;;;;;;2195941;58;1922;-22
2023/08/07 13:08:28;;;;;;;;;;;;;;;;;;2195570;66;2615;-22
2023/08/07 13:10:58;;;;;;;;;;;;;;;;;;2195407;66;2736;-22
2023/08/07 13:13:30;;;;;;;;;;;;;;;;;;2196150;59;1646;-23
2023/08/07 13:16:00;;;;;;;;;;;;;;;;;;2195581;66;1896;-23
2023/08/07 13:18:30;;;;;;;;;;;;;;;;;;2195362;66;2373;-23
2023/08/07 13:21:00;;;;;;;;;;;;;;;;;;2195714;66;2640;-23
2023/08/07 13:23:30;;;;;;;;;;;;;;;;;;2195640;66;1882;-23
2023/08/07 13:26:01;;;;;;;;;;;;;;;;;;2195621;66;1726;-23
2023/08/07 13:28:31;;;;;;;;;;;;;;;;;;2195781;66;3021;-23
2023/08/07 13:31:01;;;;;;;;;;;;;;;;;;2195202;59;1923;-23
2023/08/07 13:33:31;;;;;;;;;;;;;;;;;;2195322;59;1874;-23
2023/08/07 13:36:02;;;;;;;;;;;;;;;;;;2196177;66;1887;-23
2023/08/07 13:38:32;;;;;;;;;;;;;;;;;;2195643;66;1927;-23
2023/08/07 13:41:02;;;;;;;;;;;;;;;;;;2196077;67;1848;-23
2023/08/07 13:43:32;;;;;;;;;;;;;;;;;;2196596;67;1992;-23
2023/08/07 13:46:02;;;;;;;;;;;;;;;;;;2195700;59;1801;-23
2023/08/07 13:48:33;;;;;;;;;;;;;;;;;;2196105;66;2048;-23
2023/08/07 13:51:06;;;;;;;;;;;;;;;;;;2195729;59;1531;-23
2023/08/07 13:53:37;;;;;;;;;;;;;;;;;;2196355;58;1774;-23
2023/08/07 13:56:10;;;;;;;;;;;;;;;;;;2196296;59;1897;-23
2023/08/07 13:58:44;;;;;;;;;;;;;;;;;;2195801;66;1942;-23
2023/08/07 14:01:14;;;;;;;;;;;;;;;;;;2195476;58;1734;-23
2023/08/07 14:03:44;;;;;;;;;;;;;;;;;;2196029;59;2114;-23
2023/08/07 14:06:15;;;;;;;;;;;;;;;;;;2195350;66;1959;-23
2023/08/07 14:08:45;;;;;;;;;;;;;;;;;;2195699;66;2719;-23
2023/08/07 14:11:15;;;;;;;;;;;;;;;;;;2195080;59;1765;-23
2023/08/07 14:13:47;;;;;;;;;;;;;;;;;;2195275;66;1844;-23
2023/08/07 14:16:17;;;;;;;;;;;;;;;;;;2195693;66;1746;-23
2023/08/07 14:18:47;;;;;;;;;;;;;;;;;;2194954;59;2639;-23
2023/08/07 14:21:18;;;;;;;;;;;;;;;;;;2195245;66;2811;-23
2023/08/07 14:23:51;;;;;;;;;;;;;;;;;;2196144;66;1940;-23
2023/08/07 14:26:21;;;;;;;;;;;;;;;;;;2195651;59;1969;-23
2023/08/07 14:28:52;;;;;;;;;;;;;;;;;;2196299;67;1868;-23
2023/08/07 14:31:22;;;;;;;;;;;;;;;;;;2195754;59;2610;-23
2023/08/07 14:33:52;;;;;;;;;;;;;;;;;;2196241;59;2377;-23
2023/08/07 14:36:23;;;;;;;;;;;;;;;;;;2194858;66;1980;-23
2023/08/07 14:38:53;;;;;;;;;;;;;;;;;;2195677;67;2046;-23
2023/08/07 14:41:23;;;;;;;;;;;;;;;;;;2195528;66;1845;-23
2023/08/07 14:43:53;;;;;;;;;;;;;;;;;;2195925;66;1891;-23
2023/08/07 14:46:24;;;;;;;;;;;;;;;;;;2195663;59;1831;-23
2023/08/07 14:48:54;;;;;;;;;;;;;;;;;;2195911;67;2250;-23
2023/08/07 14:51:24;;;;;;;;;;;;;;;;;;2195447;59;1874;-23
2023/08/07 14:53:54;;;;;;;;;;;;;;;;;;2196578;58;2761;-23
2023/08/07 14:56:24;;;;;;;;;;;;;;;;;;2195712;59;2448;-23
2023/08/07 14:58:55;;;;;;;;;;;;;;;;;;2195825;67;2099;-23
2023/08/07 15:01:25;;;;;;;;;;;;;;;;;;2198002;58;1797;-23
2023/08/07 15:03:56;;;;;;;;;;;;;;;;;;2195919;59;2600;-23
2023/08/07 15:06:26;;;;;;;;;;;;;;;;;;2195457;67;1775;-23
2023/08/07 15:09:00;;;;;;;;;;;;;;;;;;2195457;67;2993;-23
2023/08/07 15:11:30;;;;;;;;;;;;;;;;;;2196598;59;2668;-23
2023/08/07 15:14:00;;;;;;;;;;;;;;;;;;2196176;67;2454;-23
2023/08/07 15:16:31;;;;;;;;;;;;;;;;;;2197734;66;1977;-23
2023/08/07 15:19:02;;;;;;;;;;;;;;;;;;2197163;66;2334;-23
2023/08/07 15:21:32;;;;;;;;;;;;;;;;;;2196094;66;2930;-23
2023/08/07 15:24:03;;;;;;;;;;;;;;;;;;2197004;66;3389;-23
2023/08/07 15:26:33;;;;;;;;;;;;;;;;;;2196829;59;1786;-23
2023/08/07 15:29:04;;;;;;;;;;;;;;;;;;2196456;66;2637;-23
2023/08/07 15:31:34;;;;;;;;;;;;;;;;;;2196592;59;1872;-23
2023/08/07 15:34:04;;;;;;;;;;;;;;;;;;2196363;60;2436;-23
2023/08/07 15:36:35;;;;;;;;;;;;;;;;;;2195691;66;1896;-23
2023/08/07 15:39:05;;;;;;;;;;;;;;;;;;2195964;67;2004;-23
2023/08/07 15:41:36;;;;;;;;;;;;;;;;;;2196148;66;2269;-23
2023/08/07 15:44:06;;;;;;;;;;;;;;;;;;2196389;67;2418;-23
2023/08/07 15:46:36;;;;;;;;;;;;;;;;;;2196298;59;2486;-23
2023/08/07 15:49:06;;;;;;;;;;;;;;;;;;2196185;66;2662;-23
2023/08/07 15:51:37;;;;;;;;;;;;;;;;;;2196765;59;1927;-23
2023/08/07 15:54:07;;;;;;;;;;;;;;;;;;2196603;59;2554;-23
2023/08/07 15:56:37;;;;;;;;;;;;;;;;;;2196103;59;2243;-23
2023/08/07 15:59:07;;;;;;;;;;;;;;;;;;2197737;64;2570;-23
2023/08/07 16:01:38;;;;;;;;;;;;;;;;;;2196588;58;1970;-23
2023/08/07 16:04:09;;;;;;;;;;;;;;;;;;2195555;58;1971;-23
2023/08/07 16:06:39;;;;;;;;;;;;;;;;;;2199323;66;2298;-23
2023/08/07 16:09:09;;;;;;;;;;;;;;;;;;2195422;66;2366;-23
2023/08/07 16:11:40;;;;;;;;;;;;;;;;;;2197307;59;1859;-23
2023/08/07 16:14:10;;;;;;;;;;;;;;;;;;2195976;66;2624;-23
2023/08/07 16:16:40;;;;;;;;;;;;;;;;;;2197255;66;2057;-23
2023/08/07 16:19:13;;;;;;;;;;;;;;;;;;2196450;66;2226;-23
2023/08/07 16:21:44;;;;;;;;;;;;;;;;;;2195983;66;2536;-23
2023/08/07 16:24:14;;;;;;;;;;;;;;;;;;2195434;66;2205;-23
2023/08/07 16:26:44;;;;;;;;;;;;;;;;;;2197292;59;1805;-22
2023/08/07 16:29:14;;;;;;;;;;;;;;;;;;2195598;60;2248;-24
2023/08/07 16:31:44;;;;;;;;;;;;;;;;;;2196227;59;1752;-24
2023/08/07 16:34:15;;;;;;;;;;;;;;;;;;2195747;63;2520;-26
2023/08/07 16:36:45;;;;;;;;;;;;;;;;;;2195626;66;3053;-26
2023/08/07 16:39:15;;;;;;;;;;;;;;;;;;2196256;66;2020;-26
2023/08/07 16:41:46;;;;;;;;;;;;;;;;;;2196646;66;2033;-26
2023/08/07 16:44:16;;;;;;;;;;;;;;;;;;2195513;59;2838;-26
2023/08/07 16:46:48;;;;;;;;;;;;;;;;;;2196548;66;2667;-26
2023/08/07 16:49:18;;;;;;;;;;;;;;;;;;2196213;66;2487;-26
2023/08/07 16:51:48;;;;;;;;;;;;;;;;;;2196558;59;2291;-26
2023/08/07 16:54:19;;;;;;;;;;;;;;;;;;2197412;58;2041;-26
2023/08/07 16:56:53;;;;;;;;;;;;;;;;;;2195969;59;2520;-25
2023/08/07 16:59:24;;;;;;;;;;;;;;;;;;2195832;67;2222;-26
2023/08/07 17:01:54;;;;;;;;;;;;;;;;;;2195938;58;2666;-25
2023/08/07 17:04:25;;;;;;;;;;;;;;;;;;2195970;58;2396;-25
2023/08/07 17:06:58;;;;;;;;;;;;;;;;;;2196329;66;2918;-25
2023/08/07 17:09:28;;;;;;;;;;;;;;;;;;2196486;66;1809;-25
2023/08/07 17:11:59;;;;;;;;;;;;;;;;;;2195251;66;2035;-25
2023/08/07 17:14:29;;;;;;;;;;;;;;;;;;2196095;67;1646;-25
2023/08/07 17:16:59;;;;;;;;;;;;;;;;;;2196184;67;3652;-25
2023/08/07 17:19:29;;;;;;;;;;;;;;;;;;2196185;67;1934;-26
2023/08/07 17:22:00;;;;;;;;;;;;;;;;;;2195795;66;2539;-25
2023/08/07 17:24:30;;;;;;;;;;;;;;;;;;2195648;66;2332;-26
2023/08/07 17:27:00;;;;;;;;;;;;;;;;;;2196441;59;1851;-26